KCEF/CEF METAR and TAF weather

Enter ICAO airport designator
Station Type Date Time Source
KCEF METAR 2018/04/20 07:56 UTC NOAA

KCEF 200756Z AUTO 32003KT 10SM CLR 00/M04 A2993 RMK AO2 SLP143 T00001044


Station Type Date Time Source
KCEF Decoded METAR 2018/04/20 07:56 UTC NOAA

Chicopee Falls / Westover Air Force Base, MA, United States (KCEF) 42-12N 072-32W 75M
Apr 20, 2018 - 03:56 AM EDT / 2018.04.20 0756 UTC
Wind: from the NW (320 degrees) at 3 MPH (3 KT):0
Visibility: 10 mile(s):0
Sky conditions: clear
Temperature: 32.0 F (0.0 C)
Dew Point: 24.1 F (-4.4 C)
Relative Humidity: 72%
Pressure (altimeter): 29.93 in. Hg (1013 hPa)
ob: KCEF 200756Z AUTO 32003KT 10SM CLR 00/M04 A2993 RMK AO2 SLP143 T00001044
cycle: 8

Station Type Date Time Source
KCEF TAF 2018/04/20 02:05 UTC NOAA

TAF KCEF 200200Z 2002/2108 32009KT 9999 SCT030 BKN080 610807 QNH2986INS
TEMPO 2002/2004 31015G25KT 520004
BECMG 2005/2006 30009KT 9999 SCT030 BKN150 QNH2990INS
BECMG 2014/2015 31012G18KT 9999 FEW030 SCT080 BKN150 QNH3006INS
BECMG 2020/2021 32012G18KT 9999 BKN050 620501 QNH3011INS
TEMPO 2021/2024 32015G25KT 520004
BECMG 2023/2024 32009KT 9999 BKN040 620401 QNH3020INS
BECMG 2102/2103 32009KT 9999 FEW030 QNH3027INS TX10/2019Z TN00/2010Z LAST NO
AMDS AFT 2003 NEXT 2010


Example: see airport list